sensor_id;sensor_type;location;lat;lon;timestamp;P1;durP1;ratioP1;P2;durP2;ratioP2
32872;SDS011;19224;52.462;16.898;2022-12-11T00:01:07;25.77;;;13.40;;
32872;SDS011;19224;52.462;16.898;2022-12-11T00:03:43;26.47;;;13.07;;
32872;SDS011;19224;52.462;16.898;2022-12-11T00:06:16;27.00;;;12.87;;
32872;SDS011;19224;52.462;16.898;2022-12-11T00:08:50;24.40;;;12.90;;
32872;SDS011;19224;52.462;16.898;2022-12-11T00:11:22;21.73;;;12.37;;
32872;SDS011;19224;52.462;16.898;2022-12-11T00:13:53;22.80;;;12.18;;
32872;SDS011;19224;52.462;16.898;2022-12-11T00:16:24;20.67;;;11.73;;
32872;SDS011;19224;52.462;16.898;2022-12-11T00:18:54;21.63;;;11.73;;
32872;SDS011;19224;52.462;16.898;2022-12-11T00:21:24;20.90;;;11.17;;
32872;SDS011;19224;52.462;16.898;2022-12-11T00:23:55;20.13;;;11.03;;
32872;SDS011;19224;52.462;16.898;2022-12-11T00:26:25;20.47;;;10.67;;
32872;SDS011;19224;52.462;16.898;2022-12-11T00:28:56;23.73;;;13.00;;
32872;SDS011;19224;52.462;16.898;2022-12-11T00:31:26;26.17;;;13.17;;
32872;SDS011;19224;52.462;16.898;2022-12-11T00:33:56;21.10;;;11.13;;
32872;SDS011;19224;52.462;16.898;2022-12-11T00:36:28;24.87;;;12.03;;
32872;SDS011;19224;52.462;16.898;2022-12-11T00:39:00;28.10;;;13.57;;
32872;SDS011;19224;52.462;16.898;2022-12-11T00:41:31;26.47;;;13.47;;
32872;SDS011;19224;52.462;16.898;2022-12-11T00:44:01;19.60;;;10.43;;
32872;SDS011;19224;52.462;16.898;2022-12-11T00:46:32;23.17;;;11.47;;
32872;SDS011;19224;52.462;16.898;2022-12-11T00:49:03;21.17;;;11.23;;
32872;SDS011;19224;52.462;16.898;2022-12-11T00:51:33;19.20;;;11.07;;
32872;SDS011;19224;52.462;16.898;2022-12-11T00:54:03;27.60;;;13.50;;
32872;SDS011;19224;52.462;16.898;2022-12-11T00:56:34;24.00;;;11.73;;
32872;SDS011;19224;52.462;16.898;2022-12-11T00:59:04;21.70;;;11.77;;
32872;SDS011;19224;52.462;16.898;2022-12-11T01:01:34;28.57;;;14.23;;
32872;SDS011;19224;52.462;16.898;2022-12-11T01:04:05;19.93;;;11.13;;
32872;SDS011;19224;52.462;16.898;2022-12-11T01:06:36;28.10;;;13.57;;
32872;SDS011;19224;52.462;16.898;2022-12-11T01:09:06;24.53;;;12.43;;
32872;SDS011;19224;52.462;16.898;2022-12-11T01:11:55;24.23;;;12.53;;
32872;SDS011;19224;52.462;16.898;2022-12-11T01:14:25;20.00;;;10.90;;
32872;SDS011;19224;52.462;16.898;2022-12-11T01:16:56;17.63;;;10.57;;
32872;SDS011;19224;52.462;16.898;2022-12-11T01:19:26;20.43;;;11.03;;
32872;SDS011;19224;52.462;16.898;2022-12-11T01:21:57;23.63;;;11.90;;
32872;SDS011;19224;52.462;16.898;2022-12-11T01:24:28;20.10;;;10.83;;
32872;SDS011;19224;52.462;16.898;2022-12-11T01:26:58;20.00;;;10.83;;
32872;SDS011;19224;52.462;16.898;2022-12-11T01:29:29;20.03;;;11.10;;
32872;SDS011;19224;52.462;16.898;2022-12-11T01:32:00;24.70;;;12.93;;
32872;SDS011;19224;52.462;16.898;2022-12-11T01:34:30;22.10;;;12.33;;
32872;SDS011;19224;52.462;16.898;2022-12-11T01:37:01;22.90;;;10.77;;
32872;SDS011;19224;52.462;16.898;2022-12-11T01:39:31;20.30;;;11.67;;
32872;SDS011;19224;52.462;16.898;2022-12-11T01:42:01;25.80;;;12.27;;
32872;SDS011;19224;52.462;16.898;2022-12-11T01:47:10;20.53;;;11.23;;
32872;SDS011;19224;52.462;16.898;2022-12-11T01:49:40;20.03;;;11.83;;
32872;SDS011;19224;52.462;16.898;2022-12-11T01:52:17;21.30;;;11.53;;
32872;SDS011;19224;52.462;16.898;2022-12-11T01:54:45;25.87;;;12.23;;
32872;SDS011;19224;52.462;16.898;2022-12-11T01:57:18;21.93;;;11.20;;
32872;SDS011;19224;52.462;16.898;2022-12-11T01:59:49;25.00;;;13.27;;
32872;SDS011;19224;52.462;16.898;2022-12-11T02:02:26;24.03;;;12.87;;
32872;SDS011;19224;52.462;16.898;2022-12-11T02:05:00;20.43;;;10.93;;
32872;SDS011;19224;52.462;16.898;2022-12-11T02:07:35;21.13;;;11.97;;
32872;SDS011;19224;52.462;16.898;2022-12-11T02:10:09;25.47;;;13.13;;
32872;SDS011;19224;52.462;16.898;2022-12-11T02:12:42;24.77;;;13.80;;
32872;SDS011;19224;52.462;16.898;2022-12-11T02:15:25;24.50;;;12.70;;
32872;SDS011;19224;52.462;16.898;2022-12-11T02:18:15;20.03;;;11.73;;
32872;SDS011;19224;52.462;16.898;2022-12-11T02:21:01;23.50;;;11.40;;
32872;SDS011;19224;52.462;16.898;2022-12-11T02:23:52;23.70;;;13.00;;
32872;SDS011;19224;52.462;16.898;2022-12-11T02:26:35;23.87;;;12.43;;
32872;SDS011;19224;52.462;16.898;2022-12-11T02:29:36;24.07;;;12.37;;
32872;SDS011;19224;52.462;16.898;2022-12-11T02:32:12;23.57;;;12.03;;
32872;SDS011;19224;52.462;16.898;2022-12-11T02:34:54;23.37;;;12.77;;
32872;SDS011;19224;52.462;16.898;2022-12-11T02:37:28;21.20;;;12.17;;
32872;SDS011;19224;52.462;16.898;2022-12-11T02:40:01;23.67;;;12.30;;
32872;SDS011;19224;52.462;16.898;2022-12-11T02:42:34;20.00;;;11.40;;
32872;SDS011;19224;52.462;16.898;2022-12-11T02:45:07;21.60;;;11.73;;
32872;SDS011;19224;52.462;16.898;2022-12-11T02:47:39;21.47;;;11.80;;
32872;SDS011;19224;52.462;16.898;2022-12-11T02:50:14;20.40;;;11.27;;
32872;SDS011;19224;52.462;16.898;2022-12-11T02:52:49;18.97;;;10.57;;
32872;SDS011;19224;52.462;16.898;2022-12-11T02:55:22;18.97;;;11.67;;
32872;SDS011;19224;52.462;16.898;2022-12-11T02:58:01;20.93;;;11.73;;
32872;SDS011;19224;52.462;16.898;2022-12-11T03:00:34;22.37;;;11.77;;
32872;SDS011;19224;52.462;16.898;2022-12-11T03:03:04;20.80;;;11.40;;
32872;SDS011;19224;52.462;16.898;2022-12-11T03:05:36;23.80;;;13.17;;
32872;SDS011;19224;52.462;16.898;2022-12-11T03:08:07;21.60;;;11.33;;
32872;SDS011;19224;52.462;16.898;2022-12-11T03:10:38;20.30;;;11.70;;
32872;SDS011;19224;52.462;16.898;2022-12-11T03:13:08;22.17;;;11.73;;
32872;SDS011;19224;52.462;16.898;2022-12-11T03:15:54;20.50;;;10.97;;
32872;SDS011;19224;52.462;16.898;2022-12-11T03:18:35;19.50;;;10.47;;
32872;SDS011;19224;52.462;16.898;2022-12-11T03:21:29;18.57;;;10.60;;
32872;SDS011;19224;52.462;16.898;2022-12-11T03:24:13;21.27;;;10.07;;
32872;SDS011;19224;52.462;16.898;2022-12-11T03:26:54;21.10;;;11.27;;
32872;SDS011;19224;52.462;16.898;2022-12-11T03:29:35;19.03;;;10.33;;
32872;SDS011;19224;52.462;16.898;2022-12-11T03:32:10;17.27;;;10.03;;
32872;SDS011;19224;52.462;16.898;2022-12-11T03:34:45;19.30;;;10.17;;
32872;SDS011;19224;52.462;16.898;2022-12-11T03:37:24;22.83;;;9.97;;
32872;SDS011;19224;52.462;16.898;2022-12-11T03:40:00;19.00;;;9.57;;
32872;SDS011;19224;52.462;16.898;2022-12-11T03:42:37;17.70;;;9.90;;
32872;SDS011;19224;52.462;16.898;2022-12-11T03:45:09;17.57;;;9.00;;
32872;SDS011;19224;52.462;16.898;2022-12-11T03:47:42;18.30;;;9.80;;
32872;SDS011;19224;52.462;16.898;2022-12-11T03:50:14;13.87;;;8.07;;
32872;SDS011;19224;52.462;16.898;2022-12-11T03:52:48;19.97;;;9.43;;
32872;SDS011;19224;52.462;16.898;2022-12-11T03:55:20;16.27;;;9.80;;
32872;SDS011;19224;52.462;16.898;2022-12-11T03:57:52;19.73;;;9.73;;
32872;SDS011;19224;52.462;16.898;2022-12-11T04:00:23;18.97;;;10.20;;
32872;SDS011;19224;52.462;16.898;2022-12-11T04:02:54;18.67;;;9.67;;
32872;SDS011;19224;52.462;16.898;2022-12-11T04:05:45;20.63;;;10.70;;
32872;SDS011;19224;52.462;16.898;2022-12-11T04:08:21;15.00;;;8.40;;
32872;SDS011;19224;52.462;16.898;2022-12-11T04:10:52;20.33;;;9.53;;
32872;SDS011;19224;52.462;16.898;2022-12-11T04:13:41;16.47;;;8.83;;
32872;SDS011;19224;52.462;16.898;2022-12-11T04:16:11;18.03;;;9.60;;
32872;SDS011;19224;52.462;16.898;2022-12-11T04:18:41;18.80;;;10.00;;
32872;SDS011;19224;52.462;16.898;2022-12-11T04:21:30;20.37;;;9.57;;
32872;SDS011;19224;52.462;16.898;2022-12-11T04:24:17;21.17;;;9.90;;
32872;SDS011;19224;52.462;16.898;2022-12-11T04:26:48;18.17;;;9.43;;
32872;SDS011;19224;52.462;16.898;2022-12-11T04:29:18;16.67;;;9.80;;
32872;SDS011;19224;52.462;16.898;2022-12-11T04:31:48;15.70;;;9.40;;
32872;SDS011;19224;52.462;16.898;2022-12-11T04:34:18;19.27;;;9.77;;
32872;SDS011;19224;52.462;16.898;2022-12-11T04:36:49;15.43;;;8.50;;
32872;SDS011;19224;52.462;16.898;2022-12-11T04:39:19;13.40;;;7.77;;
32872;SDS011;19224;52.462;16.898;2022-12-11T04:41:49;13.13;;;7.30;;
32872;SDS011;19224;52.462;16.898;2022-12-11T04:44:20;13.70;;;7.80;;
32872;SDS011;19224;52.462;16.898;2022-12-11T04:46:50;12.27;;;7.97;;
32872;SDS011;19224;52.462;16.898;2022-12-11T04:49:20;11.40;;;6.83;;
32872;SDS011;19224;52.462;16.898;2022-12-11T04:51:50;14.63;;;8.10;;
32872;SDS011;19224;52.462;16.898;2022-12-11T04:54:21;11.97;;;7.30;;
32872;SDS011;19224;52.462;16.898;2022-12-11T04:56:51;12.53;;;7.63;;
32872;SDS011;19224;52.462;16.898;2022-12-11T04:59:21;15.33;;;8.57;;
32872;SDS011;19224;52.462;16.898;2022-12-11T05:01:52;14.30;;;8.10;;
32872;SDS011;19224;52.462;16.898;2022-12-11T05:04:22;14.27;;;8.50;;
32872;SDS011;19224;52.462;16.898;2022-12-11T05:06:53;13.43;;;7.63;;
32872;SDS011;19224;52.462;16.898;2022-12-11T05:09:24;16.33;;;8.37;;
32872;SDS011;19224;52.462;16.898;2022-12-11T05:11:55;17.27;;;8.77;;
32872;SDS011;19224;52.462;16.898;2022-12-11T05:14:25;12.03;;;7.83;;
32872;SDS011;19224;52.462;16.898;2022-12-11T05:16:58;14.60;;;8.17;;
32872;SDS011;19224;52.462;16.898;2022-12-11T05:19:29;13.20;;;7.40;;
32872;SDS011;19224;52.462;16.898;2022-12-11T05:21:59;11.93;;;7.53;;
32872;SDS011;19224;52.462;16.898;2022-12-11T05:24:29;13.30;;;7.50;;
32872;SDS011;19224;52.462;16.898;2022-12-11T05:27:00;13.77;;;7.57;;
32872;SDS011;19224;52.462;16.898;2022-12-11T05:29:30;13.07;;;7.47;;
32872;SDS011;19224;52.462;16.898;2022-12-11T05:32:00;13.20;;;7.53;;
32872;SDS011;19224;52.462;16.898;2022-12-11T05:34:31;11.53;;;7.20;;
32872;SDS011;19224;52.462;16.898;2022-12-11T05:37:01;15.37;;;7.67;;
32872;SDS011;19224;52.462;16.898;2022-12-11T05:39:32;15.53;;;8.43;;
32872;SDS011;19224;52.462;16.898;2022-12-11T05:42:02;17.83;;;8.27;;
32872;SDS011;19224;52.462;16.898;2022-12-11T05:44:33;15.40;;;9.00;;
32872;SDS011;19224;52.462;16.898;2022-12-11T05:47:03;15.17;;;8.50;;
32872;SDS011;19224;52.462;16.898;2022-12-11T05:49:33;15.10;;;9.10;;
32872;SDS011;19224;52.462;16.898;2022-12-11T05:52:04;15.13;;;8.50;;
32872;SDS011;19224;52.462;16.898;2022-12-11T05:54:34;14.30;;;8.30;;
32872;SDS011;19224;52.462;16.898;2022-12-11T05:57:05;14.60;;;8.63;;
32872;SDS011;19224;52.462;16.898;2022-12-11T05:59:35;13.70;;;8.00;;
32872;SDS011;19224;52.462;16.898;2022-12-11T06:02:05;13.53;;;8.30;;
32872;SDS011;19224;52.462;16.898;2022-12-11T06:04:36;13.67;;;8.00;;
32872;SDS011;19224;52.462;16.898;2022-12-11T06:07:06;18.67;;;9.10;;
32872;SDS011;19224;52.462;16.898;2022-12-11T06:09:36;14.77;;;8.67;;
32872;SDS011;19224;52.462;16.898;2022-12-11T06:12:07;16.77;;;9.27;;
32872;SDS011;19224;52.462;16.898;2022-12-11T06:14:37;14.07;;;8.57;;
32872;SDS011;19224;52.462;16.898;2022-12-11T06:17:08;14.07;;;8.47;;
32872;SDS011;19224;52.462;16.898;2022-12-11T06:19:38;16.77;;;9.07;;
32872;SDS011;19224;52.462;16.898;2022-12-11T06:22:08;14.97;;;9.10;;
32872;SDS011;19224;52.462;16.898;2022-12-11T06:24:38;14.47;;;8.63;;
32872;SDS011;19224;52.462;16.898;2022-12-11T06:27:09;16.47;;;9.90;;
32872;SDS011;19224;52.462;16.898;2022-12-11T06:29:39;16.07;;;9.47;;
32872;SDS011;19224;52.462;16.898;2022-12-11T06:32:09;13.47;;;8.70;;
32872;SDS011;19224;52.462;16.898;2022-12-11T06:34:39;17.00;;;9.67;;
32872;SDS011;19224;52.462;16.898;2022-12-11T06:37:09;17.27;;;9.17;;
32872;SDS011;19224;52.462;16.898;2022-12-11T06:39:40;17.73;;;9.20;;
32872;SDS011;19224;52.462;16.898;2022-12-11T06:42:10;15.00;;;9.40;;
32872;SDS011;19224;52.462;16.898;2022-12-11T06:44:40;18.13;;;9.23;;
32872;SDS011;19224;52.462;16.898;2022-12-11T06:47:11;17.97;;;10.23;;
32872;SDS011;19224;52.462;16.898;2022-12-11T06:49:41;17.03;;;9.57;;
32872;SDS011;19224;52.462;16.898;2022-12-11T06:52:11;17.43;;;9.67;;
32872;SDS011;19224;52.462;16.898;2022-12-11T06:54:42;16.57;;;10.00;;
32872;SDS011;19224;52.462;16.898;2022-12-11T06:57:12;15.97;;;10.30;;
32872;SDS011;19224;52.462;16.898;2022-12-11T06:59:43;19.00;;;10.80;;
32872;SDS011;19224;52.462;16.898;2022-12-11T07:02:15;21.03;;;11.40;;
32872;SDS011;19224;52.462;16.898;2022-12-11T07:04:47;21.77;;;11.10;;
32872;SDS011;19224;52.462;16.898;2022-12-11T07:07:18;21.23;;;11.77;;
32872;SDS011;19224;52.462;16.898;2022-12-11T07:09:49;19.67;;;11.17;;
32872;SDS011;19224;52.462;16.898;2022-12-11T07:12:19;16.87;;;10.93;;
32872;SDS011;19224;52.462;16.898;2022-12-11T07:14:50;19.90;;;11.63;;
32872;SDS011;19224;52.462;16.898;2022-12-11T07:17:20;22.70;;;12.20;;
32872;SDS011;19224;52.462;16.898;2022-12-11T07:19:50;21.17;;;12.17;;
32872;SDS011;19224;52.462;16.898;2022-12-11T07:22:20;20.47;;;11.23;;
32872;SDS011;19224;52.462;16.898;2022-12-11T07:24:51;19.47;;;11.27;;
32872;SDS011;19224;52.462;16.898;2022-12-11T07:27:21;18.77;;;11.20;;
32872;SDS011;19224;52.462;16.898;2022-12-11T07:29:52;19.33;;;11.37;;
32872;SDS011;19224;52.462;16.898;2022-12-11T07:32:22;17.57;;;10.67;;
32872;SDS011;19224;52.462;16.898;2022-12-11T07:34:52;19.27;;;10.23;;
32872;SDS011;19224;52.462;16.898;2022-12-11T07:37:23;17.90;;;9.80;;
32872;SDS011;19224;52.462;16.898;2022-12-11T07:39:53;16.87;;;9.50;;
32872;SDS011;19224;52.462;16.898;2022-12-11T07:42:23;17.87;;;10.03;;
32872;SDS011;19224;52.462;16.898;2022-12-11T07:44:54;16.60;;;9.60;;
32872;SDS011;19224;52.462;16.898;2022-12-11T07:47:24;18.17;;;10.57;;
32872;SDS011;19224;52.462;16.898;2022-12-11T07:49:55;17.53;;;10.30;;
32872;SDS011;19224;52.462;16.898;2022-12-11T07:52:25;18.73;;;10.47;;
32872;SDS011;19224;52.462;16.898;2022-12-11T07:54:55;19.70;;;11.00;;
32872;SDS011;19224;52.462;16.898;2022-12-11T07:57:26;16.50;;;8.90;;
32872;SDS011;19224;52.462;16.898;2022-12-11T07:59:56;18.30;;;10.33;;
32872;SDS011;19224;52.462;16.898;2022-12-11T08:02:27;18.17;;;8.83;;
32872;SDS011;19224;52.462;16.898;2022-12-11T08:04:57;13.90;;;8.40;;
32872;SDS011;19224;52.462;16.898;2022-12-11T08:07:27;15.07;;;8.73;;
32872;SDS011;19224;52.462;16.898;2022-12-11T08:09:57;15.20;;;8.53;;
32872;SDS011;19224;52.462;16.898;2022-12-11T08:12:27;16.93;;;9.63;;
32872;SDS011;19224;52.462;16.898;2022-12-11T08:14:58;14.47;;;9.03;;
32872;SDS011;19224;52.462;16.898;2022-12-11T08:17:28;15.47;;;9.07;;
32872;SDS011;19224;52.462;16.898;2022-12-11T08:19:58;16.17;;;8.43;;
32872;SDS011;19224;52.462;16.898;2022-12-11T08:22:29;17.83;;;9.10;;
32872;SDS011;19224;52.462;16.898;2022-12-11T08:24:59;17.00;;;9.27;;
32872;SDS011;19224;52.462;16.898;2022-12-11T08:27:29;16.87;;;10.10;;
32872;SDS011;19224;52.462;16.898;2022-12-11T08:30:00;16.70;;;9.03;;
32872;SDS011;19224;52.462;16.898;2022-12-11T08:32:30;18.30;;;10.27;;
32872;SDS011;19224;52.462;16.898;2022-12-11T08:35:02;16.77;;;9.90;;
32872;SDS011;19224;52.462;16.898;2022-12-11T08:37:33;20.67;;;9.90;;
32872;SDS011;19224;52.462;16.898;2022-12-11T08:40:04;21.57;;;11.10;;
32872;SDS011;19224;52.462;16.898;2022-12-11T08:42:37;19.20;;;11.03;;
32872;SDS011;19224;52.462;16.898;2022-12-11T08:45:08;23.47;;;11.97;;
32872;SDS011;19224;52.462;16.898;2022-12-11T08:47:39;23.13;;;12.10;;
32872;SDS011;19224;52.462;16.898;2022-12-11T08:50:10;21.47;;;11.60;;
32872;SDS011;19224;52.462;16.898;2022-12-11T08:52:40;20.50;;;11.20;;
32872;SDS011;19224;52.462;16.898;2022-12-11T08:55:11;26.60;;;11.17;;
32872;SDS011;19224;52.462;16.898;2022-12-11T08:57:41;20.67;;;11.17;;
32872;SDS011;19224;52.462;16.898;2022-12-11T09:00:12;20.50;;;10.37;;
32872;SDS011;19224;52.462;16.898;2022-12-11T09:02:43;16.00;;;10.03;;
32872;SDS011;19224;52.462;16.898;2022-12-11T09:05:13;17.43;;;10.17;;
32872;SDS011;19224;52.462;16.898;2022-12-11T09:07:44;19.90;;;10.13;;
32872;SDS011;19224;52.462;16.898;2022-12-11T09:10:14;21.23;;;10.07;;
32872;SDS011;19224;52.462;16.898;2022-12-11T09:12:44;16.97;;;9.60;;
32872;SDS011;19224;52.462;16.898;2022-12-11T09:15:15;25.33;;;11.67;;
32872;SDS011;19224;52.462;16.898;2022-12-11T09:17:45;22.10;;;10.87;;
32872;SDS011;19224;52.462;16.898;2022-12-11T09:20:15;20.17;;;10.67;;
32872;SDS011;19224;52.462;16.898;2022-12-11T09:22:46;20.17;;;10.60;;
32872;SDS011;19224;52.462;16.898;2022-12-11T09:25:16;20.63;;;10.80;;
32872;SDS011;19224;52.462;16.898;2022-12-11T09:27:47;22.63;;;12.27;;
32872;SDS011;19224;52.462;16.898;2022-12-11T09:30:17;17.47;;;9.83;;
32872;SDS011;19224;52.462;16.898;2022-12-11T09:32:48;25.30;;;12.07;;
32872;SDS011;19224;52.462;16.898;2022-12-11T09:35:19;20.17;;;10.83;;
32872;SDS011;19224;52.462;16.898;2022-12-11T09:37:49;22.50;;;11.53;;
32872;SDS011;19224;52.462;16.898;2022-12-11T09:40:20;25.23;;;12.47;;
32872;SDS011;19224;52.462;16.898;2022-12-11T09:42:53;31.20;;;15.13;;
32872;SDS011;19224;52.462;16.898;2022-12-11T09:45:31;17.07;;;9.47;;
32872;SDS011;19224;52.462;16.898;2022-12-11T09:48:02;19.10;;;9.87;;
32872;SDS011;19224;52.462;16.898;2022-12-11T09:50:34;17.33;;;9.20;;
32872;SDS011;19224;52.462;16.898;2022-12-11T10:01:36;19.10;;;11.10;;
32872;SDS011;19224;52.462;16.898;2022-12-11T10:07:37;20.07;;;10.57;;
32872;SDS011;19224;52.462;16.898;2022-12-11T10:19:29;19.00;;;10.50;;
32872;SDS011;19224;52.462;16.898;2022-12-11T10:22:01;20.07;;;11.13;;
32872;SDS011;19224;52.462;16.898;2022-12-11T10:27:28;21.87;;;11.30;;
32872;SDS011;19224;52.462;16.898;2022-12-11T10:30:06;21.23;;;11.10;;
32872;SDS011;19224;52.462;16.898;2022-12-11T10:32:48;22.00;;;11.17;;
32872;SDS011;19224;52.462;16.898;2022-12-11T10:35:48;22.17;;;11.63;;
32872;SDS011;19224;52.462;16.898;2022-12-11T10:41:17;28.40;;;12.27;;
32872;SDS011;19224;52.462;16.898;2022-12-11T10:43:52;23.47;;;12.03;;
32872;SDS011;19224;52.462;16.898;2022-12-11T10:46:26;25.67;;;11.57;;
32872;SDS011;19224;52.462;16.898;2022-12-11T10:48:59;18.60;;;10.70;;
32872;SDS011;19224;52.462;16.898;2022-12-11T10:54:05;17.87;;;10.03;;
32872;SDS011;19224;52.462;16.898;2022-12-11T10:56:47;19.97;;;10.80;;
32872;SDS011;19224;52.462;16.898;2022-12-11T11:00:03;24.07;;;11.63;;
32872;SDS011;19224;52.462;16.898;2022-12-11T11:04:56;20.33;;;10.17;;
32872;SDS011;19224;52.462;16.898;2022-12-11T11:07:29;17.70;;;9.73;;
32872;SDS011;19224;52.462;16.898;2022-12-11T11:12:43;19.20;;;10.30;;
32872;SDS011;19224;52.462;16.898;2022-12-11T11:15:24;19.57;;;10.60;;
32872;SDS011;19224;52.462;16.898;2022-12-11T11:17:56;21.40;;;10.67;;
32872;SDS011;19224;52.462;16.898;2022-12-11T11:20:34;17.00;;;10.27;;
32872;SDS011;19224;52.462;16.898;2022-12-11T11:23:12;18.83;;;10.57;;
32872;SDS011;19224;52.462;16.898;2022-12-11T11:25:43;20.83;;;10.60;;
32872;SDS011;19224;52.462;16.898;2022-12-11T11:28:29;19.80;;;10.07;;
32872;SDS011;19224;52.462;16.898;2022-12-11T11:31:06;19.27;;;10.93;;
32872;SDS011;19224;52.462;16.898;2022-12-11T11:34:01;17.50;;;10.03;;
32872;SDS011;19224;52.462;16.898;2022-12-11T11:36:37;16.83;;;9.57;;
32872;SDS011;19224;52.462;16.898;2022-12-11T11:42:19;16.47;;;9.90;;
32872;SDS011;19224;52.462;16.898;2022-12-11T11:47:39;17.17;;;9.33;;
32872;SDS011;19224;52.462;16.898;2022-12-11T11:50:31;15.07;;;9.57;;
32872;SDS011;19224;52.462;16.898;2022-12-11T11:53:11;20.50;;;10.00;;
32872;SDS011;19224;52.462;16.898;2022-12-11T11:56:06;18.10;;;9.83;;
32872;SDS011;19224;52.462;16.898;2022-12-11T12:02:00;14.93;;;8.87;;
32872;SDS011;19224;52.462;16.898;2022-12-11T12:04:35;16.23;;;9.90;;
32872;SDS011;19224;52.462;16.898;2022-12-11T12:12:38;14.70;;;8.47;;
32872;SDS011;19224;52.462;16.898;2022-12-11T12:18:14;18.37;;;9.53;;
32872;SDS011;19224;52.462;16.898;2022-12-11T12:30:13;18.67;;;9.17;;
32872;SDS011;19224;52.462;16.898;2022-12-11T12:35:37;18.07;;;9.27;;
32872;SDS011;19224;52.462;16.898;2022-12-11T12:38:25;18.50;;;9.90;;
32872;SDS011;19224;52.462;16.898;2022-12-11T12:44:14;15.77;;;9.37;;
32872;SDS011;19224;52.462;16.898;2022-12-11T12:46:55;13.73;;;7.80;;
32872;SDS011;19224;52.462;16.898;2022-12-11T12:49:34;13.17;;;7.27;;
32872;SDS011;19224;52.462;16.898;2022-12-11T12:52:23;11.83;;;6.23;;
32872;SDS011;19224;52.462;16.898;2022-12-11T12:57:53;15.23;;;6.57;;
32872;SDS011;19224;52.462;16.898;2022-12-11T13:03:12;12.47;;;6.70;;
32872;SDS011;19224;52.462;16.898;2022-12-11T13:06:00;14.43;;;6.80;;
32872;SDS011;19224;52.462;16.898;2022-12-11T13:08:45;12.27;;;6.83;;
32872;SDS011;19224;52.462;16.898;2022-12-11T13:11:18;14.27;;;7.17;;
32872;SDS011;19224;52.462;16.898;2022-12-11T13:14:05;12.37;;;7.07;;
32872;SDS011;19224;52.462;16.898;2022-12-11T13:16:42;10.67;;;6.50;;
32872;SDS011;19224;52.462;16.898;2022-12-11T13:22:16;14.60;;;6.57;;
32872;SDS011;19224;52.462;16.898;2022-12-11T13:24:55;14.33;;;7.60;;
32872;SDS011;19224;52.462;16.898;2022-12-11T13:30:05;14.03;;;8.00;;
32872;SDS011;19224;52.462;16.898;2022-12-11T13:32:53;13.20;;;6.83;;
32872;SDS011;19224;52.462;16.898;2022-12-11T13:35:32;15.13;;;7.97;;
32872;SDS011;19224;52.462;16.898;2022-12-11T13:38:05;16.67;;;8.73;;
32872;SDS011;19224;52.462;16.898;2022-12-11T13:40:54;14.17;;;8.00;;
32872;SDS011;19224;52.462;16.898;2022-12-11T13:43:31;14.73;;;8.30;;
32872;SDS011;19224;52.462;16.898;2022-12-11T13:46:00;16.43;;;8.53;;
32872;SDS011;19224;52.462;16.898;2022-12-11T13:51:33;14.73;;;8.13;;
32872;SDS011;19224;52.462;16.898;2022-12-11T13:54:14;16.17;;;8.40;;
32872;SDS011;19224;52.462;16.898;2022-12-11T13:56:53;19.07;;;9.87;;
32872;SDS011;19224;52.462;16.898;2022-12-11T13:59:40;15.40;;;8.47;;
32872;SDS011;19224;52.462;16.898;2022-12-11T14:05:07;17.20;;;8.57;;
32872;SDS011;19224;52.462;16.898;2022-12-11T14:07:41;14.30;;;8.13;;
32872;SDS011;19224;52.462;16.898;2022-12-11T14:10:26;15.30;;;8.37;;
32872;SDS011;19224;52.462;16.898;2022-12-11T14:13:04;19.50;;;9.20;;
32872;SDS011;19224;52.462;16.898;2022-12-11T14:15:37;22.73;;;10.97;;
32872;SDS011;19224;52.462;16.898;2022-12-11T14:18:46;17.57;;;9.07;;
32872;SDS011;19224;52.462;16.898;2022-12-11T14:20:58;18.87;;;9.80;;
32872;SDS011;19224;52.462;16.898;2022-12-11T14:23:32;15.73;;;8.53;;
32872;SDS011;19224;52.462;16.898;2022-12-11T14:26:17;16.43;;;9.40;;
32872;SDS011;19224;52.462;16.898;2022-12-11T14:28:56;13.20;;;7.53;;
32872;SDS011;19224;52.462;16.898;2022-12-11T14:31:28;15.70;;;8.23;;
32872;SDS011;19224;52.462;16.898;2022-12-11T14:34:14;14.73;;;8.30;;
32872;SDS011;19224;52.462;16.898;2022-12-11T14:36:50;16.73;;;8.00;;
32872;SDS011;19224;52.462;16.898;2022-12-11T14:39:31;15.83;;;8.33;;
32872;SDS011;19224;52.462;16.898;2022-12-11T14:42:02;19.87;;;10.33;;
32872;SDS011;19224;52.462;16.898;2022-12-11T14:44:47;18.90;;;9.03;;
32872;SDS011;19224;52.462;16.898;2022-12-11T14:47:28;18.47;;;9.37;;
32872;SDS011;19224;52.462;16.898;2022-12-11T14:49:59;18.80;;;9.47;;
32872;SDS011;19224;52.462;16.898;2022-12-11T14:52:39;15.77;;;7.37;;
32872;SDS011;19224;52.462;16.898;2022-12-11T14:55:19;17.97;;;9.10;;
32872;SDS011;19224;52.462;16.898;2022-12-11T14:58:03;18.57;;;9.67;;
32872;SDS011;19224;52.462;16.898;2022-12-11T15:00:43;17.80;;;9.63;;
32872;SDS011;19224;52.462;16.898;2022-12-11T15:03:20;20.47;;;10.23;;
32872;SDS011;19224;52.462;16.898;2022-12-11T15:05:54;34.97;;;11.03;;
32872;SDS011;19224;52.462;16.898;2022-12-11T15:08:31;20.23;;;10.23;;
32872;SDS011;19224;52.462;16.898;2022-12-11T15:11:05;19.20;;;10.17;;
32872;SDS011;19224;52.462;16.898;2022-12-11T15:13:51;24.07;;;11.83;;
32872;SDS011;19224;52.462;16.898;2022-12-11T15:16:27;22.17;;;11.60;;
32872;SDS011;19224;52.462;16.898;2022-12-11T15:19:02;22.67;;;12.47;;
32872;SDS011;19224;52.462;16.898;2022-12-11T15:21:34;27.23;;;14.07;;
32872;SDS011;19224;52.462;16.898;2022-12-11T15:24:05;27.07;;;12.27;;
32872;SDS011;19224;52.462;16.898;2022-12-11T15:26:45;28.60;;;13.80;;
32872;SDS011;19224;52.462;16.898;2022-12-11T15:29:30;23.67;;;12.50;;
32872;SDS011;19224;52.462;16.898;2022-12-11T15:34:50;23.03;;;12.93;;
32872;SDS011;19224;52.462;16.898;2022-12-11T15:37:30;36.63;;;17.80;;
32872;SDS011;19224;52.462;16.898;2022-12-11T15:40:05;29.43;;;16.10;;
32872;SDS011;19224;52.462;16.898;2022-12-11T15:42:37;43.37;;;19.87;;
32872;SDS011;19224;52.462;16.898;2022-12-11T15:45:16;27.33;;;13.37;;
32872;SDS011;19224;52.462;16.898;2022-12-11T15:47:57;24.83;;;13.13;;
32872;SDS011;19224;52.462;16.898;2022-12-11T15:50:28;25.43;;;12.27;;
32872;SDS011;19224;52.462;16.898;2022-12-11T15:52:58;23.53;;;11.63;;
32872;SDS011;19224;52.462;16.898;2022-12-11T15:55:29;21.60;;;12.10;;
32872;SDS011;19224;52.462;16.898;2022-12-11T15:58:02;20.63;;;10.90;;
32872;SDS011;19224;52.462;16.898;2022-12-11T16:00:36;22.30;;;11.50;;
32872;SDS011;19224;52.462;16.898;2022-12-11T16:03:08;23.97;;;12.30;;
32872;SDS011;19224;52.462;16.898;2022-12-11T16:05:44;21.10;;;11.83;;
32872;SDS011;19224;52.462;16.898;2022-12-11T16:08:17;22.53;;;11.77;;
32872;SDS011;19224;52.462;16.898;2022-12-11T16:10:52;22.77;;;11.10;;
32872;SDS011;19224;52.462;16.898;2022-12-11T16:13:23;20.63;;;10.23;;
32872;SDS011;19224;52.462;16.898;2022-12-11T16:15:53;19.67;;;10.77;;
32872;SDS011;19224;52.462;16.898;2022-12-11T16:18:24;22.27;;;11.80;;
32872;SDS011;19224;52.462;16.898;2022-12-11T16:20:55;23.93;;;11.30;;
32872;SDS011;19224;52.462;16.898;2022-12-11T16:23:26;24.80;;;12.20;;